Hlavní strana
METAR-TAF:

METAR-TAF

Letiště :

Letiště Franjo Tuđmana

Záhřeb, Chorvatsko

zeměpisná šířka: 45-44N, zeměpisná délka: 016-04E, výška: 106 m

Aktuální stav počasí

Zpráva byla vytvořena před 24 minutami, v 06:30 UTC
vítr z různých směrů 2 kt
Teplota 24°C
Vlhkost vzduchu 65%
Tlak 1015 hPa
Viditelnost 10 km a více
Žádná oblačnost pod 1500 m, nevyskytují se cumulonimby.

METAR: LDZA 190630Z VRB02KT CAVOK 24/17 Q1015 NOSIG

Čas: 08:54 (06:54 UTC)

Předpověď počasí

Zpráva byla vytvořena před 1 hodinou a 29 minutami, v 05:25 UTC
Předpověď platná od 19 v 06 UTC do 20 v 06 UTC
vítr z různých směrů 2 kt
Viditelnost 10 km a více
Žádná oblačnost pod 1500 m, nevyskytují se cumulonimby.
Změna
od 19 v 07 UTC do 19 v 09 UTC
Jihozápadní vítr 8 kt
Dočasný
od 19 v 10 UTC do 19 v 17 UTC
Jihozápadní vítr 14 kt
Změna
od 19 v 17 UTC do 19 v 19 UTC
Jihozápadní vítr 4 kt

TAF: LDZA 190525Z 1906/2006 VRB02KT CAVOK TX33/1914Z TN19/2003Z BECMG 1907/1909 22008KT TEMPO 1910/1917 22014KT BECMG 1917/1919 22004KT

Stav a předpovědi počasí z více než 4 000 letišť (zprávy METAR a TAF).

Červené a žluté tečky na mapě představují dostupné meteorologické stanice.

Když kurzor umístíte na tečku, zobrazí se název stanice.

Pak kliknutím zobrazíte stav a předpověď počasí.

Chcete-li změnit mapu, kliknutím na zelené tlačítko se znaménkem +mapu přiblížíte, kliknutím na zelené tlačítko se znaménkem – mapu oddálíte a kliknutím na zelené šipky přejdete na sousední mapy.


METAR-TAF: